createdAt,value
2022-08-11T00:00:01.356Z,101629.86
2022-08-11T00:03:11.640Z,101630.08
2022-08-11T00:06:05.536Z,101630.34
2022-08-11T00:08:43.475Z,101626.71
2022-08-11T00:11:26.940Z,101630.98
2022-08-11T00:14:24.618Z,101630.86
2022-08-11T00:17:19.200Z,101636.88
2022-08-11T00:20:17.233Z,101633.63
2022-08-11T00:23:10.656Z,101635.09
2022-08-11T00:25:52.546Z,101632.20
2022-08-11T00:28:40.490Z,101628.05
2022-08-11T00:31:39.690Z,101622.36
2022-08-11T00:34:36.666Z,101625.55
2022-08-11T00:37:32.506Z,101622.48
2022-08-11T00:40:18.716Z,101618.72
2022-08-11T00:43:20.507Z,101622.97
2022-08-11T00:46:23.536Z,101624.95
2022-08-11T00:49:21.085Z,101625.87
2022-08-11T00:52:15.632Z,101625.60
2022-08-11T00:55:07.811Z,101626.52
2022-08-11T00:57:52.691Z,101619.27
2022-08-11T01:00:40.466Z,101622.97
2022-08-11T01:03:37.677Z,101623.18
2022-08-11T01:06:55.490Z,101624.64
2022-08-11T01:10:19.421Z,101622.77
2022-08-11T01:13:40.958Z,101622.48
2022-08-11T01:16:42.687Z,101627.41
2022-08-11T01:20:46.043Z,101624.13
2022-08-11T01:22:52.749Z,101620.11
2022-08-11T01:26:08.645Z,101625.35
2022-08-11T01:28:58.556Z,101622.20
2022-08-11T01:32:00.520Z,101622.19
2022-08-11T01:35:04.854Z,101620.94
2022-08-11T01:38:18.219Z,101617.27
2022-08-11T01:42:00.259Z,101617.98
2022-08-11T01:45:03.740Z,101619.05
2022-08-11T01:48:08.621Z,101619.77
2022-08-11T01:51:09.595Z,101621.70
2022-08-11T01:54:12.621Z,101614.61
2022-08-11T01:57:08.813Z,101613.10
2022-08-11T02:00:00.628Z,101613.51
2022-08-11T02:02:56.556Z,101614.44
2022-08-11T02:05:50.572Z,101615.52
2022-08-11T02:08:50.694Z,101614.70
2022-08-11T02:11:46.538Z,101611.96
2022-08-11T02:14:41.676Z,101608.71
2022-08-11T02:17:55.592Z,101617.43
2022-08-11T02:20:58.111Z,101613.64
2022-08-11T02:24:05.344Z,101618.20
2022-08-11T02:27:12.669Z,101615.47
2022-08-11T02:30:08.668Z,101620.40
2022-08-11T02:33:18.927Z,101616.77
2022-08-11T02:36:13.617Z,101618.73
2022-08-11T02:39:10.607Z,101617.74
2022-08-11T02:42:31.988Z,101620.74
2022-08-11T02:45:47.157Z,101624.27
2022-08-11T02:48:51.308Z,101622.92
2022-08-11T02:51:43.654Z,101617.56
2022-08-11T02:54:46.586Z,101619.52
2022-08-11T02:57:48.805Z,101625.11
2022-08-11T03:00:46.048Z,101625.96
2022-08-11T03:03:40.394Z,101626.15
2022-08-11T03:06:34.321Z,101627.59
2022-08-11T03:09:16.067Z,101631.27
2022-08-11T03:12:27.628Z,101633.70
2022-08-11T03:15:30.759Z,101639.29
2022-08-11T03:18:27.209Z,101638.44
2022-08-11T03:22:01.577Z,101641.05
2022-08-11T03:25:12.757Z,101642.64
2022-08-11T03:28:07.703Z,101642.98
2022-08-11T03:30:48.584Z,101643.89
2022-08-11T03:34:05.631Z,101646.01
2022-08-11T03:37:45.587Z,101648.13
2022-08-11T03:40:59.792Z,101650.08
2022-08-11T03:44:43.289Z,101648.73
2022-08-11T03:47:57.730Z,101650.36
2022-08-11T03:51:07.474Z,101647.40
2022-08-11T03:54:01.533Z,101647.45
2022-08-11T03:57:00.963Z,101644.33
2022-08-11T03:59:48.594Z,101647.83
2022-08-11T04:03:05.378Z,101646.11
2022-08-11T04:06:27.901Z,101651.88
2022-08-11T04:09:34.577Z,101647.88
2022-08-11T04:12:49.408Z,101648.55
2022-08-11T04:16:12.366Z,101646.83
2022-08-11T04:19:05.402Z,101648.72
2022-08-11T04:22:02.636Z,101644.36
2022-08-11T04:24:50.485Z,101653.77
2022-08-11T04:27:54.316Z,101650.80
2022-08-11T04:34:02.515Z,101659.71
2022-08-11T04:37:22.566Z,101656.95
2022-08-11T04:40:44.326Z,101655.61
2022-08-11T04:44:05.563Z,101657.75
2022-08-11T04:47:03.442Z,101655.68
2022-08-11T04:50:16.653Z,101657.09
2022-08-11T04:53:22.272Z,101656.72
2022-08-11T04:56:45.687Z,101655.70
2022-08-11T05:00:03.735Z,101662.30
2022-08-11T05:03:12.323Z,101662.62
2022-08-11T05:06:21.467Z,101663.48
2022-08-11T05:09:46.445Z,101662.27
2022-08-11T05:12:55.577Z,101658.11
2022-08-11T05:16:09.807Z,101658.13
2022-08-11T05:19:20.676Z,101653.77
2022-08-11T05:22:30.089Z,101652.70
2022-08-11T05:26:43.310Z,101652.48
2022-08-11T05:29:19.311Z,101650.91
2022-08-11T05:32:31.480Z,101649.00
2022-08-11T05:36:01.223Z,101648.98
2022-08-11T05:38:46.782Z,101651.23
2022-08-11T05:41:50.393Z,101648.42
2022-08-11T05:45:01.445Z,101651.38
2022-08-11T05:48:04.339Z,101650.84
2022-08-11T05:51:00.733Z,101650.48
2022-08-11T05:54:28.682Z,101648.89
2022-08-11T05:57:48.589Z,101649.38
2022-08-11T06:00:50.674Z,101652.67
2022-08-11T06:03:58.536Z,101654.03
2022-08-11T06:07:06.789Z,101651.58
2022-08-11T06:09:57.964Z,101653.10
2022-08-11T06:12:49.415Z,101655.65
2022-08-11T06:15:41.513Z,101651.61
2022-08-11T06:18:39.286Z,101653.63
2022-08-11T06:21:20.824Z,101655.84
2022-08-11T06:23:59.771Z,101655.77
2022-08-11T06:26:55.150Z,101654.48
2022-08-11T06:29:38.013Z,101656.64
2022-08-11T06:32:20.225Z,101656.15
2022-08-11T06:35:21.124Z,101657.05
2022-08-11T06:37:59.126Z,101654.81
2022-08-11T06:40:43.825Z,101658.98
2022-08-11T06:43:33.180Z,101659.60
2022-08-11T06:46:12.002Z,101663.67
2022-08-11T06:49:02.892Z,101657.99
2022-08-11T06:51:41.811Z,101662.12
2022-08-11T06:54:17.012Z,101657.27
2022-08-11T06:57:28.868Z,101650.69
2022-08-11T07:00:29.688Z,101642.64
2022-08-11T07:03:10.337Z,101639.85
2022-08-11T07:05:54.125Z,101640.59
2022-08-11T07:08:54.289Z,101634.34
2022-08-11T07:12:13.513Z,101633.92
2022-08-11T07:16:10.451Z,101633.33
2022-08-11T07:19:06.596Z,101631.76
2022-08-11T07:22:03.765Z,101633.39
2022-08-11T07:25:02.466Z,101632.23
2022-08-11T07:28:03.827Z,101631.28
2022-08-11T07:30:41.530Z,101627.10
2022-08-11T07:34:05.844Z,101629.72
2022-08-11T07:36:07.242Z,101629.00
2022-08-11T07:38:47.641Z,101625.67
2022-08-11T07:41:22.052Z,101626.85
2022-08-11T07:43:57.176Z,101626.67
2022-08-11T07:46:45.002Z,101629.83
2022-08-11T07:49:32.834Z,101630.27
2022-08-11T07:52:31.091Z,101629.58
2022-08-11T07:55:50.919Z,101630.11
2022-08-11T07:58:45.179Z,101631.53
2022-08-11T08:04:56.778Z,101627.65
2022-08-11T08:07:44.514Z,101617.84
2022-08-11T08:10:38.298Z,101615.80
2022-08-11T08:13:29.041Z,101617.23
2022-08-11T08:16:31.360Z,101614.88
2022-08-11T08:19:02.289Z,101623.07
2022-08-11T08:21:33.007Z,101619.43
2022-08-11T08:24:05.601Z,101621.60
2022-08-11T08:26:57.188Z,101623.23
2022-08-11T08:29:47.562Z,101621.35
2022-08-11T08:32:22.466Z,101620.35
2022-08-11T08:34:53.605Z,101615.38
2022-08-11T08:37:45.420Z,101610.16
2022-08-11T08:40:23.593Z,101613.96
2022-08-11T08:43:00.384Z,101605.11
2022-08-11T08:45:38.839Z,101606.15
2022-08-11T08:48:17.594Z,101608.92
2022-08-11T08:51:58.627Z,101610.46
2022-08-11T08:54:38.894Z,101607.83
2022-08-11T08:57:12.432Z,101600.46
2022-08-11T08:59:48.709Z,101597.38
2022-08-11T09:02:39.404Z,101599.98
2022-08-11T09:05:11.248Z,101601.80
2022-08-11T09:07:43.764Z,101603.71
2022-08-11T09:10:18.070Z,101601.00
2022-08-11T09:12:49.838Z,101598.60
2022-08-11T09:15:22.770Z,101592.46
2022-08-11T09:18:20.025Z,101593.41
2022-08-11T09:20:54.947Z,101588.85
2022-08-11T09:27:02.924Z,101593.73
2022-08-11T09:29:38.175Z,101590.10
2022-08-11T09:32:11.994Z,101588.69
2022-08-11T09:34:46.798Z,101593.00
2022-08-11T09:37:54.095Z,101588.67
2022-08-11T09:40:30.937Z,101584.89
2022-08-11T09:43:22.836Z,101583.77
2022-08-11T09:45:59.511Z,101574.21
2022-08-11T09:48:33.863Z,101577.84
2022-08-11T09:51:07.589Z,101577.59
2022-08-11T09:53:42.024Z,101575.29
2022-08-11T09:56:50.849Z,101574.01
2022-08-11T09:59:24.374Z,101574.61
2022-08-11T10:02:00.985Z,101568.71
2022-08-11T10:04:43.281Z,101560.43
2022-08-11T10:07:17.229Z,101565.14
2022-08-11T10:10:23.205Z,101572.11
2022-08-11T10:14:31.582Z,101568.02
2022-08-11T10:16:15.071Z,101562.23
2022-08-11T10:18:53.608Z,101555.52
2022-08-11T10:21:35.052Z,101558.84
2022-08-11T10:24:25.424Z,101559.45
2022-08-11T10:27:00.301Z,101554.66
2022-08-11T10:29:55.693Z,101551.98
2022-08-11T10:32:57.283Z,101545.63
2022-08-11T10:35:32.699Z,101541.55
2022-08-11T10:38:06.849Z,101541.00
2022-08-11T10:40:42.891Z,101537.81
2022-08-11T10:43:59.843Z,101533.61
2022-08-11T10:46:29.748Z,101537.42
2022-08-11T10:49:02.841Z,101534.69
2022-08-11T10:51:53.832Z,101541.16
2022-08-11T10:54:42.809Z,101538.76
2022-08-11T10:57:33.778Z,101532.91
2022-08-11T11:00:06.725Z,101527.92
2022-08-11T11:02:37.975Z,101523.02
2022-08-11T11:05:31.365Z,101511.56
2022-08-11T11:08:30.711Z,101507.00
2022-08-11T11:11:03.666Z,101508.35
2022-08-11T11:13:57.336Z,101502.38
2022-08-11T11:16:43.338Z,101499.89
2022-08-11T11:19:19.695Z,101504.38
2022-08-11T11:21:53.583Z,101501.18
2022-08-11T11:24:37.874Z,101501.58
2022-08-11T11:27:23.351Z,101499.28
2022-08-11T11:30:09.538Z,101500.34
2022-08-11T11:33:21.959Z,101500.59
2022-08-11T11:36:13.043Z,101500.09
2022-08-11T11:38:44.675Z,101491.23
2022-08-11T11:41:27.603Z,101485.56
2022-08-11T11:44:01.460Z,101487.11
2022-08-11T11:46:38.897Z,101480.69
2022-08-11T11:49:15.852Z,101480.09
2022-08-11T11:51:54.154Z,101473.73
2022-08-11T11:54:28.466Z,101467.41
2022-08-11T11:57:22.914Z,101462.61
2022-08-11T12:00:12.510Z,101456.98
2022-08-11T12:02:44.068Z,101453.77
2022-08-11T12:05:15.200Z,101453.59
2022-08-11T12:08:05.237Z,101448.52
2022-08-11T12:11:21.252Z,101443.92
2022-08-11T12:13:54.296Z,101439.71
2022-08-11T12:16:33.871Z,101436.45
2022-08-11T12:19:10.921Z,101428.21
2022-08-11T12:22:03.998Z,101423.49
2022-08-11T12:24:54.393Z,101410.14
2022-08-11T12:27:27.334Z,101407.20
2022-08-11T12:30:06.364Z,101398.47
2022-08-11T12:32:40.661Z,101404.44
2022-08-11T12:35:13.047Z,101398.39
2022-08-11T12:37:49.278Z,101396.91
2022-08-11T12:41:03.507Z,101400.45
2022-08-11T12:43:56.863Z,101398.36
2022-08-11T12:46:33.538Z,101399.41
2022-08-11T12:49:31.671Z,101392.41
2022-08-11T12:52:15.768Z,101391.14
2022-08-11T12:54:52.404Z,101389.33
2022-08-11T12:58:06.756Z,101388.23
2022-08-11T13:00:54.611Z,101376.23
2022-08-11T13:03:43.780Z,101382.17
2022-08-11T13:06:26.348Z,101378.55
2022-08-11T13:09:01.515Z,101381.23
2022-08-11T13:11:55.662Z,101376.98
2022-08-11T13:14:31.580Z,101373.48
2022-08-11T13:17:20.119Z,101372.11
2022-08-11T13:19:52.357Z,101367.77
2022-08-11T13:22:24.990Z,101363.09
2022-08-11T13:24:57.029Z,101362.77
2022-08-11T13:27:28.074Z,101367.77
2022-08-11T13:30:12.606Z,101369.13
2022-08-11T13:32:48.054Z,101364.41
2022-08-11T13:35:20.454Z,101363.07
2022-08-11T13:38:19.038Z,101364.65
2022-08-11T13:40:55.826Z,101362.40
2022-08-11T13:43:29.436Z,101361.30
2022-08-11T13:46:23.237Z,101357.73
2022-08-11T13:49:33.173Z,101352.02
2022-08-11T13:52:24.152Z,101345.69
2022-08-11T13:55:45.053Z,101340.92
2022-08-11T13:59:05.987Z,101343.11
2022-08-11T14:02:21.569Z,101339.67
2022-08-11T14:05:27.253Z,101339.48
2022-08-11T14:08:06.578Z,101340.98
2022-08-11T14:12:19.989Z,101339.02
2022-08-11T14:14:14.178Z,101337.74
2022-08-11T14:16:52.996Z,101339.12
2022-08-11T14:19:30.417Z,101339.48
2022-08-11T14:22:12.277Z,101336.07
2022-08-11T14:25:03.124Z,101335.31
2022-08-11T14:28:30.424Z,101331.23
2022-08-11T14:31:04.443Z,101327.67
2022-08-11T14:33:58.872Z,101322.23
2022-08-11T14:37:29.603Z,101322.88
2022-08-11T14:40:35.930Z,101322.56
2022-08-11T14:44:13.992Z,101323.17
2022-08-11T14:47:23.021Z,101323.08
2022-08-11T14:50:27.872Z,101321.71
2022-08-11T14:53:20.296Z,101324.99
2022-08-11T14:56:39.286Z,101320.73
2022-08-11T14:59:45.131Z,101326.14
2022-08-11T15:06:14.407Z,101330.94
2022-08-11T15:09:17.284Z,101332.54
2022-08-11T15:12:32.640Z,101334.54
2022-08-11T15:16:05.632Z,101330.98
2022-08-11T15:18:51.050Z,101328.51
2022-08-11T15:21:39.450Z,101325.23
2022-08-11T15:24:31.546Z,101325.14
2022-08-11T15:27:43.757Z,101319.79
2022-08-11T15:30:45.061Z,101316.54
2022-08-11T15:33:58.436Z,101316.15
2022-08-11T15:36:52.164Z,101315.39
2022-08-11T15:40:31.300Z,101310.85
2022-08-11T15:43:57.599Z,101312.23
2022-08-11T15:47:04.634Z,101310.63
2022-08-11T15:50:10.430Z,101308.79
2022-08-11T15:52:55.693Z,101308.04
2022-08-11T15:55:33.160Z,101307.41
2022-08-11T15:58:35.163Z,101311.23
2022-08-11T16:01:45.367Z,101306.96
2022-08-11T16:04:27.872Z,101304.31
2022-08-11T16:07:12.962Z,101301.56
2022-08-11T16:10:09.449Z,101302.47
2022-08-11T16:13:22.102Z,101305.48
2022-08-11T16:16:16.275Z,101307.29
2022-08-11T16:19:26.922Z,101309.09
2022-08-11T16:22:01.992Z,101311.73
2022-08-11T16:27:04.683Z,101309.95
2022-08-11T16:27:26.603Z,101318.11
2022-08-11T16:30:08.746Z,101317.77
2022-08-11T16:32:54.088Z,101319.48
2022-08-11T16:36:04.377Z,101308.52
2022-08-11T16:38:50.355Z,101315.12
2022-08-11T16:41:54.400Z,101316.59
2022-08-11T16:44:53.414Z,101318.56
2022-08-11T16:48:02.927Z,101318.30
2022-08-11T16:50:57.349Z,101320.55
2022-08-11T16:53:54.944Z,101321.17
2022-08-11T16:56:52.950Z,101320.33
2022-08-11T16:59:40.897Z,101316.34
2022-08-11T17:02:52.330Z,101314.07
2022-08-11T17:05:54.716Z,101315.38
2022-08-11T17:09:00.602Z,101317.55
2022-08-11T17:12:13.479Z,101314.41
2022-08-11T17:15:02.079Z,101316.13
2022-08-11T17:17:40.607Z,101317.27
2022-08-11T17:20:38.595Z,101314.52
2022-08-11T17:23:32.091Z,101315.80
2022-08-11T17:26:04.772Z,101314.85
2022-08-11T17:28:38.028Z,101314.42
2022-08-11T17:31:26.312Z,101318.13
2022-08-11T17:34:15.803Z,101318.69
2022-08-11T17:36:46.248Z,101318.17
2022-08-11T17:39:17.780Z,101319.59
2022-08-11T17:42:38.012Z,101322.40
2022-08-11T17:45:27.805Z,101321.31
2022-08-11T17:48:29.193Z,101324.20
2022-08-11T17:51:06.989Z,101325.70
2022-08-11T17:54:18.067Z,101330.90
2022-08-11T17:57:21.009Z,101332.14
2022-08-11T17:59:57.449Z,101332.61
2022-08-11T18:02:52.094Z,101335.89
2022-08-11T18:05:27.353Z,101337.55
2022-08-11T18:08:19.388Z,101335.37
2022-08-11T18:11:07.843Z,101339.00
2022-08-11T18:14:00.060Z,101340.33
2022-08-11T18:16:48.858Z,101338.83
2022-08-11T18:19:36.659Z,101339.75
2022-08-11T18:22:39.620Z,101340.48
2022-08-11T18:25:43.350Z,101340.46
2022-08-11T18:28:36.145Z,101341.65
2022-08-11T18:31:26.550Z,101343.15
2022-08-11T18:34:26.001Z,101343.84
2022-08-11T18:37:29.307Z,101347.48
2022-08-11T18:40:47.610Z,101349.44
2022-08-11T18:45:01.461Z,101349.74
2022-08-11T18:52:13.386Z,101357.06
2022-08-11T18:55:27.634Z,101359.16
2022-08-11T18:58:23.626Z,101363.90
2022-08-11T19:06:32.467Z,101369.86
2022-08-11T19:09:15.897Z,101367.26
2022-08-11T19:12:19.449Z,101365.30
2022-08-11T19:15:12.183Z,101366.13
2022-08-11T19:18:22.156Z,101371.92
2022-08-11T19:21:12.453Z,101376.45
2022-08-11T19:24:09.246Z,101375.33
2022-08-11T19:26:58.740Z,101376.02
2022-08-11T19:30:04.690Z,101383.53
2022-08-11T19:33:00.874Z,101383.16
2022-08-11T19:35:52.661Z,101382.94
2022-08-11T19:38:40.742Z,101391.89
2022-08-11T19:41:56.530Z,101388.41
2022-08-11T19:44:41.649Z,101392.08
2022-08-11T19:47:31.909Z,101395.02
2022-08-11T19:50:38.889Z,101392.35
2022-08-11T19:53:32.214Z,101400.18
2022-08-11T19:56:20.437Z,101401.04
2022-08-11T19:59:10.330Z,101402.92
2022-08-11T20:02:13.488Z,101407.46
2022-08-11T20:05:02.551Z,101407.98
2022-08-11T20:07:52.380Z,101407.08
2022-08-11T20:10:41.235Z,101408.09
2022-08-11T20:13:30.765Z,101406.63
2022-08-11T20:16:21.038Z,101409.94
2022-08-11T20:19:11.024Z,101410.42
2022-08-11T20:22:05.961Z,101412.83
2022-08-11T20:24:57.753Z,101411.54
2022-08-11T20:27:51.263Z,101416.08
2022-08-11T20:30:45.191Z,101418.30
2022-08-11T20:33:34.437Z,101417.52
2022-08-11T20:36:23.496Z,101415.56
2022-08-11T20:39:13.152Z,101419.42
2022-08-11T20:42:02.132Z,101421.14
2022-08-11T20:45:02.950Z,101423.94
2022-08-11T20:47:59.404Z,101425.32
2022-08-11T20:50:50.588Z,101427.73
2022-08-11T20:54:13.697Z,101433.10
2022-08-11T20:57:12.693Z,101433.27
2022-08-11T21:00:05.008Z,101424.83
2022-08-11T21:03:36.081Z,101428.30
2022-08-11T21:06:33.114Z,101429.86
2022-08-11T21:09:25.064Z,101431.69
2022-08-11T21:12:50.535Z,101436.39
2022-08-11T21:16:02.838Z,101431.65
2022-08-11T21:19:11.037Z,101441.76
2022-08-11T21:22:03.960Z,101440.83
2022-08-11T21:24:53.523Z,101440.94
2022-08-11T21:27:45.189Z,101436.99
2022-08-11T21:30:33.086Z,101434.10
2022-08-11T21:33:22.338Z,101436.66
2022-08-11T21:36:43.776Z,101437.66
2022-08-11T21:39:41.107Z,101441.46
2022-08-11T21:42:30.710Z,101442.45
2022-08-11T21:45:19.121Z,101437.13
2022-08-11T21:48:09.120Z,101439.91
2022-08-11T21:51:05.655Z,101440.37
2022-08-11T21:53:54.638Z,101438.55
2022-08-11T21:56:46.469Z,101442.86
2022-08-11T21:59:41.646Z,101442.61
2022-08-11T22:02:29.369Z,101446.41
2022-08-11T22:05:17.320Z,101443.77
2022-08-11T22:08:05.707Z,101442.48
2022-08-11T22:10:53.734Z,101442.46
2022-08-11T22:13:41.555Z,101441.00
2022-08-11T22:16:49.336Z,101439.91
2022-08-11T22:19:38.192Z,101436.91
2022-08-11T22:22:27.398Z,101431.29
2022-08-11T22:25:16.655Z,101435.02
2022-08-11T22:28:06.496Z,101433.96
2022-08-11T22:30:54.405Z,101433.33
2022-08-11T22:34:00.114Z,101433.94
2022-08-11T22:36:54.277Z,101438.08
2022-08-11T22:39:44.259Z,101436.92
2022-08-11T22:42:33.445Z,101435.07
2022-08-11T22:45:21.738Z,101432.88
2022-08-11T22:48:10.608Z,101430.22
2022-08-11T22:50:59.549Z,101430.15
2022-08-11T22:53:57.632Z,101433.70
2022-08-11T22:56:48.797Z,101433.10
2022-08-11T22:59:39.692Z,101432.84
2022-08-11T23:02:28.169Z,101433.27
2022-08-11T23:05:20.254Z,101440.33
2022-08-11T23:08:08.938Z,101440.41
2022-08-11T23:10:57.996Z,101440.16
2022-08-11T23:13:48.000Z,101438.33
2022-08-11T23:16:37.868Z,101435.41
2022-08-11T23:20:00.340Z,101434.84
2022-08-11T23:22:43.743Z,101439.39
2022-08-11T23:25:41.126Z,101436.20
2022-08-11T23:28:33.255Z,101434.73
2022-08-11T23:31:21.777Z,101435.32
2022-08-11T23:34:41.540Z,101436.75
2022-08-11T23:37:21.755Z,101435.27
2022-08-11T23:40:10.333Z,101437.95
2022-08-11T23:42:59.210Z,101434.36
2022-08-11T23:45:46.818Z,101440.02
2022-08-11T23:48:35.637Z,101442.59
2022-08-11T23:51:25.177Z,101436.75
2022-08-11T23:54:32.656Z,101436.16
2022-08-11T23:57:24.749Z,101434.52
